Pagina principale
METAR-TAF:

METAR-TAF

Aeroporti :

Genova, Italia

Aeroporto di Genova-Sestri

latitudine: 44-25N, longitudine: 008-51E, altezza: 2 m

Osservazione

Il bollettino è stato emesso 45 minuti fa, alle 08:20 UTC
Vento 13 kt da sud-est
Temperature 26°C
Umidità 79%
Pressione 1014 hPa
Visibilità 10 km o più
Nubi sparse ad un'altezza di 1800 ft

METAR: LIMJ 190820Z 13013KT 9999 SCT018 26/22 Q1014

Ora: 11:05 (09:05 UTC)

Previsione

Il bollettino è stato emesso 4 ore e 5 minuti fa, alle 05:00 UTC
Previsione valida dal 19 alle 06 UTC al 20 alle 06 UTC
Vento 7 kt da sud/sud-est
Visibilità 10 km o più
Nubi sparse ad un'altezza di 2500 ft

TAF: LIMJ 190500Z 1906/2006 15007KT 9999 SCT025

Osservazioni e previsioni meteorologiche di più di 4000 aeroporti (messaggi METAR e TAF).

Le stazioni disponibili sono rappresentate dai dischi gialli e rossi sulla carta.

Puntare il mouse per vedere il nome della stazione.

Clicca sopra per visualizzare le osservazioni e previsioni meteorologiche.

Per cambiare la mappa : fare clic sui pulsanti verdi con una croce nera per ingrandire, il pulsante verde con un trattino per diminuire, o sulla freccia verde per le mappe adiacenti.


METAR-TAF: